createdAt,value
2024-02-13T00:00:34.109Z,100610.28
2024-02-13T00:03:01.791Z,100616.72
2024-02-13T00:05:29.556Z,100607.97
2024-02-13T00:07:57.114Z,100613.28
2024-02-13T00:10:25.840Z,100622.38
2024-02-13T00:12:53.336Z,100617.81
2024-02-13T00:15:22.324Z,100626.91
2024-02-13T00:17:49.976Z,100620.81
2024-02-13T00:20:18.840Z,100633.34
2024-02-13T00:22:49.287Z,100637.13
2024-02-13T00:25:18.753Z,100633.69
2024-02-13T00:27:48.205Z,100632.91
2024-02-13T00:30:15.864Z,100639.78
2024-02-13T00:33:06.712Z,100626.81
2024-02-13T00:35:55.299Z,100639.69
2024-02-13T00:38:22.776Z,100636.69
2024-02-13T00:40:50.280Z,100644.25
2024-02-13T00:43:21.415Z,100648.44
2024-02-13T00:45:48.913Z,100648.44
2024-02-13T00:48:19.300Z,100641.59
2024-02-13T00:50:48.463Z,100644.66
2024-02-13T00:53:18.862Z,100650.00
2024-02-13T00:55:47.081Z,100644.34
2024-02-13T00:58:14.757Z,100648.22
2024-02-13T01:00:42.186Z,100646.75
2024-02-13T01:03:12.391Z,100655.16
2024-02-13T01:05:42.726Z,100654.03
2024-02-13T01:08:12.031Z,100664.34
2024-02-13T01:10:40.269Z,100657.91
2024-02-13T01:13:08.831Z,100669.34
2024-02-13T01:15:37.797Z,100670.09
2024-02-13T01:18:06.328Z,100669.34
2024-02-13T01:20:34.769Z,100676.22
2024-02-13T01:23:02.305Z,100681.53
2024-02-13T01:25:32.042Z,100684.94
2024-02-13T01:28:00.256Z,100682.28
2024-02-13T01:30:27.640Z,100679.63
2024-02-13T01:32:55.180Z,100680.38
2024-02-13T01:35:22.707Z,100685.72
2024-02-13T01:37:51.030Z,100678.09
2024-02-13T01:40:18.786Z,100679.63
2024-02-13T01:42:49.873Z,100684.19
2024-02-13T01:45:18.276Z,100686.84
2024-02-13T01:47:56.648Z,100691.41
2024-02-13T01:50:24.261Z,100688.72
2024-02-13T01:52:52.552Z,100701.25
2024-02-13T01:55:25.139Z,100700.50
2024-02-13T01:57:55.468Z,100700.50
2024-02-13T02:00:23.507Z,100699.72
2024-02-13T02:02:51.297Z,100706.94
2024-02-13T02:05:19.291Z,100706.16
2024-02-13T02:07:57.534Z,100713.34
2024-02-13T02:10:25.161Z,100706.47
2024-02-13T02:12:52.891Z,100717.13
2024-02-13T02:15:20.577Z,100707.63
2024-02-13T02:17:52.913Z,100715.59
2024-02-13T02:20:21.300Z,100714.06
2024-02-13T02:22:48.869Z,100722.03
2024-02-13T02:25:19.947Z,100713.63
2024-02-13T02:28:05.694Z,100705.63
2024-02-13T02:30:36.375Z,100709.41
2024-02-13T02:33:05.173Z,100708.63
2024-02-13T02:35:32.968Z,100713.94
2024-02-13T02:38:00.451Z,100718.50
2024-02-13T02:40:29.259Z,100717.38
2024-02-13T02:42:56.875Z,100721.59
2024-02-13T02:45:25.038Z,100723.47
2024-02-13T02:47:53.090Z,100729.56
2024-02-13T02:50:21.102Z,100728.47
2024-02-13T02:52:48.568Z,100721.25
2024-02-13T02:55:16.850Z,100728.53
2024-02-13T02:57:44.658Z,100723.66
2024-02-13T03:00:14.016Z,100732.09
2024-02-13T03:02:54.053Z,100735.16
2024-02-13T03:05:22.246Z,100735.59
2024-02-13T03:07:49.659Z,100738.25
2024-02-13T03:10:17.134Z,100741.72
2024-02-13T03:12:45.392Z,100748.56
2024-02-13T03:15:13.869Z,100750.47
2024-02-13T03:17:41.442Z,100749.72
2024-02-13T03:20:12.655Z,100751.22
2024-02-13T03:22:53.769Z,100747.06
2024-02-13T03:25:21.192Z,100753.91
2024-02-13T03:27:55.853Z,100746.69
2024-02-13T03:30:23.508Z,100752.38
2024-02-13T03:32:51.380Z,100753.16
2024-02-13T03:35:19.226Z,100755.81
2024-02-13T03:37:46.599Z,100753.91
2024-02-13T03:40:17.364Z,100757.69
2024-02-13T03:42:45.934Z,100757.22
2024-02-13T03:45:13.615Z,100770.19
2024-02-13T03:47:53.095Z,100763.31
2024-02-13T03:50:20.646Z,100768.66
2024-02-13T03:52:48.182Z,100768.66
2024-02-13T03:55:15.769Z,100770.53
2024-02-13T03:57:43.399Z,100771.63
2024-02-13T04:00:12.841Z,100773.53
2024-02-13T04:02:43.200Z,100767.78
2024-02-13T04:05:11.396Z,100772.00
2024-02-13T04:07:39.145Z,100770.47
2024-02-13T04:10:06.963Z,100777.66
2024-02-13T04:12:46.342Z,100783.00
2024-02-13T04:15:14.756Z,100783.31
2024-02-13T04:17:52.240Z,100777.22
2024-02-13T04:20:19.869Z,100779.88
2024-02-13T04:22:47.283Z,100785.19
2024-02-13T04:25:14.801Z,100778.34
2024-02-13T04:27:44.454Z,100786.31
2024-02-13T04:30:12.663Z,100779.47
2024-02-13T04:32:41.059Z,100782.13
2024-02-13T04:35:10.151Z,100785.13
2024-02-13T04:37:38.174Z,100780.56
2024-02-13T04:40:07.349Z,100780.22
2024-02-13T04:42:37.933Z,100785.53
2024-02-13T04:45:05.641Z,100783.66
2024-02-13T04:47:36.094Z,100781.78
2024-02-13T04:50:04.486Z,100779.53
2024-02-13T04:52:32.523Z,100781.88
2024-02-13T04:54:59.926Z,100787.28
2024-02-13T04:57:28.458Z,100779.00
2024-02-13T04:59:58.577Z,100782.44
2024-02-13T05:02:26.360Z,100786.28
2024-02-13T05:05:12.708Z,100782.06
2024-02-13T05:07:42.747Z,100782.06
2024-02-13T05:10:10.897Z,100785.50
2024-02-13T05:12:58.455Z,100783.94
2024-02-13T05:15:26.604Z,100787.06
2024-02-13T05:17:54.107Z,100786.28
2024-02-13T05:20:21.697Z,100790.50
2024-02-13T05:22:49.268Z,100787.06
2024-02-13T05:25:16.998Z,100790.03
2024-02-13T05:27:45.987Z,100786.28
2024-02-13T05:30:13.532Z,100794.59
2024-02-13T05:32:41.076Z,100792.72
2024-02-13T05:35:09.404Z,100792.72
2024-02-13T05:37:38.865Z,100786.59
2024-02-13T05:40:07.730Z,100783.94
2024-02-13T05:42:35.951Z,100791.16
2024-02-13T05:45:03.629Z,100785.09
2024-02-13T05:47:36.938Z,100781.66
2024-02-13T05:50:09.032Z,100786.97
2024-02-13T05:52:37.146Z,100785.72
2024-02-13T05:55:05.318Z,100783.06
2024-02-13T05:57:33.234Z,100788.72
2024-02-13T06:00:00.866Z,100779.53
2024-02-13T06:02:28.758Z,100778.44
2024-02-13T06:04:56.249Z,100780.00
2024-02-13T06:07:23.617Z,100786.41
2024-02-13T06:09:51.160Z,100788.31
2024-02-13T06:12:19.011Z,100783.31
2024-02-13T06:14:48.664Z,100787.53
2024-02-13T06:17:16.383Z,100784.44
2024-02-13T06:19:44.086Z,100796.97
2024-02-13T06:22:11.612Z,100800.41
2024-02-13T06:24:39.828Z,100802.28
2024-02-13T06:27:08.456Z,100793.88
2024-02-13T06:29:36.201Z,100806.09
2024-02-13T06:32:03.739Z,100801.50
2024-02-13T06:34:31.174Z,100800.75
2024-02-13T06:36:58.770Z,100801.50
2024-02-13T06:39:26.922Z,100809.16
2024-02-13T06:41:54.590Z,100809.59
2024-02-13T06:44:23.739Z,100810.78
2024-02-13T06:46:51.466Z,100812.00
2024-02-13T06:49:19.184Z,100809.78
2024-02-13T06:51:46.638Z,100813.22
2024-02-13T06:54:13.977Z,100818.22
2024-02-13T06:56:45.425Z,100825.09
2024-02-13T06:59:13.166Z,100826.97
2024-02-13T07:01:40.702Z,100823.53
2024-02-13T07:04:08.225Z,100825.09
2024-02-13T07:06:43.999Z,100821.66
2024-02-13T07:09:24.554Z,100825.09
2024-02-13T07:11:53.028Z,100828.53
2024-02-13T07:14:24.564Z,100839.50
2024-02-13T07:16:53.163Z,100850.94
2024-02-13T07:19:20.624Z,100850.94
2024-02-13T07:21:48.035Z,100841.38
2024-02-13T07:24:16.148Z,100842.94
2024-02-13T07:26:43.890Z,100846.72
2024-02-13T07:29:12.405Z,100840.63
2024-02-13T07:31:40.387Z,100853.94
2024-02-13T07:34:08.066Z,100851.63
2024-02-13T07:36:35.627Z,100853.94
2024-02-13T07:39:03.901Z,100856.94
2024-02-13T07:41:31.232Z,100850.84
2024-02-13T07:43:58.705Z,100856.16
2024-02-13T07:46:26.593Z,100858.34
2024-02-13T07:48:54.564Z,100856.81
2024-02-13T07:51:22.449Z,100858.69
2024-02-13T07:53:49.956Z,100856.81
2024-02-13T07:56:19.946Z,100853.38
2024-02-13T07:58:47.774Z,100853.72
2024-02-13T08:01:21.465Z,100860.94
2024-02-13T08:03:48.918Z,100850.28
2024-02-13T08:06:16.512Z,100866.25
2024-02-13T08:08:44.263Z,100855.63
2024-02-13T08:11:11.874Z,100864.72
2024-02-13T08:13:39.374Z,100865.81
2024-02-13T08:16:08.272Z,100866.59
2024-02-13T08:18:36.206Z,100867.69
2024-02-13T08:21:03.750Z,100863.50
2024-02-13T08:23:31.668Z,100857.38
2024-02-13T08:25:59.124Z,100869.59
2024-02-13T08:28:27.601Z,100861.59
2024-02-13T08:30:55.047Z,100865.81
2024-02-13T08:33:23.907Z,100863.94
2024-02-13T08:35:54.779Z,100872.00
2024-02-13T08:38:22.641Z,100875.09
2024-02-13T08:40:50.284Z,100871.78
2024-02-13T08:43:18.087Z,100876.78
2024-02-13T08:45:45.474Z,100868.44
2024-02-13T08:48:14.525Z,100867.69
2024-02-13T08:50:42.481Z,100864.66
2024-02-13T08:53:11.050Z,100877.97
2024-02-13T08:55:38.568Z,100884.06
2024-02-13T08:58:06.441Z,100869.97
2024-02-13T09:00:33.923Z,100877.22
2024-02-13T09:03:12.657Z,100885.94
2024-02-13T09:05:40.613Z,100884.41
2024-02-13T09:08:08.228Z,100887.09
2024-02-13T09:10:35.638Z,100886.72
2024-02-13T09:13:03.227Z,100889.75
2024-02-13T09:15:32.003Z,100888.59
2024-02-13T09:17:59.661Z,100897.72
2024-02-13T09:20:27.803Z,100892.41
2024-02-13T09:22:56.863Z,100903.06
2024-02-13T09:25:24.450Z,100904.94
2024-02-13T09:27:54.108Z,100900.72
2024-02-13T09:30:24.104Z,100911.03
2024-02-13T09:32:51.715Z,100908.72
2024-02-13T09:35:19.432Z,100912.47
2024-02-13T09:37:51.390Z,100922.03
2024-02-13T09:40:19.685Z,100933.78
2024-02-13T09:42:47.592Z,100921.56
2024-02-13T09:45:15.215Z,100924.56
2024-02-13T09:47:43.583Z,100925.38
2024-02-13T09:50:13.903Z,100930.22
2024-02-13T09:52:56.059Z,100924.91
2024-02-13T09:55:23.651Z,100929.44
2024-02-13T09:57:51.501Z,100939.31
2024-02-13T10:00:19.806Z,100940.09
2024-02-13T10:02:52.132Z,100931.31
2024-02-13T10:05:22.694Z,100937.00
2024-02-13T10:07:50.923Z,100947.28
2024-02-13T10:10:18.537Z,100942.34
2024-02-13T10:12:56.381Z,100938.91
2024-02-13T10:15:24.221Z,100938.91
2024-02-13T10:17:52.938Z,100946.88
2024-02-13T10:20:20.756Z,100954.84
2024-02-13T10:22:48.974Z,100947.28
2024-02-13T10:25:25.051Z,100955.28
2024-02-13T10:27:55.782Z,100953.84
2024-02-13T10:30:24.399Z,100950.84
2024-02-13T10:32:52.141Z,100956.63
2024-02-13T10:35:23.908Z,100965.06
2024-02-13T10:37:51.849Z,100960.16
2024-02-13T10:40:20.048Z,100961.69
2024-02-13T10:42:47.816Z,100973.13
2024-02-13T10:45:15.671Z,100965.91
2024-02-13T10:47:53.038Z,100973.47
2024-02-13T10:50:21.542Z,100971.25
2024-02-13T10:52:59.557Z,100976.56
2024-02-13T10:55:27.841Z,100969.69
2024-02-13T10:57:57.776Z,100966.69
2024-02-13T11:00:27.744Z,100976.56
2024-02-13T11:02:57.100Z,100974.69
2024-02-13T11:05:29.568Z,100978.44
2024-02-13T11:07:57.463Z,100975.78
2024-02-13T11:10:36.382Z,100975.00
2024-02-13T11:13:06.364Z,100988.00
2024-02-13T11:15:38.986Z,100977.34
2024-02-13T11:18:14.893Z,100985.66
2024-02-13T11:20:50.061Z,100984.09
2024-02-13T11:23:35.191Z,100985.22
2024-02-13T11:26:03.035Z,100993.19
2024-02-13T11:28:39.986Z,100989.44
2024-02-13T11:31:16.062Z,100993.97
2024-02-13T11:34:03.017Z,100990.91
2024-02-13T11:36:37.135Z,100987.09
2024-02-13T11:39:08.562Z,100984.78
2024-02-13T11:41:36.680Z,100992.00
2024-02-13T11:44:11.103Z,100994.66
2024-02-13T11:46:39.211Z,100996.56
2024-02-13T11:49:11.534Z,100997.66
2024-02-13T11:51:43.094Z,100993.88
2024-02-13T11:54:10.821Z,100997.66
2024-02-13T11:56:38.953Z,101006.75
2024-02-13T11:59:07.326Z,101000.69
2024-02-13T12:01:38.991Z,101018.53
2024-02-13T12:04:17.711Z,101015.88
2024-02-13T12:06:46.068Z,101013.22
2024-02-13T12:09:16.561Z,101013.50
2024-02-13T12:11:44.856Z,101016.94
2024-02-13T12:14:14.666Z,101019.31
2024-02-13T12:16:43.953Z,101017.41
2024-02-13T12:19:11.986Z,101020.06
2024-02-13T12:21:39.628Z,101020.50
2024-02-13T12:24:09.960Z,101027.81
2024-02-13T12:26:38.534Z,101022.94
2024-02-13T12:29:16.740Z,101023.38
2024-02-13T12:31:47.308Z,101021.50
2024-02-13T12:34:15.426Z,101021.13
2024-02-13T12:36:43.356Z,101024.56
2024-02-13T12:39:21.980Z,101021.63
2024-02-13T12:41:53.559Z,101024.28
2024-02-13T12:44:22.544Z,101024.28
2024-02-13T12:46:52.764Z,101022.69
2024-02-13T12:49:24.336Z,101020.81
2024-02-13T12:51:52.510Z,101029.59
2024-02-13T12:54:23.311Z,101024.28
2024-02-13T12:56:54.234Z,101026.13
2024-02-13T12:59:23.319Z,101029.59
2024-02-13T13:01:50.907Z,101031.47
2024-02-13T13:04:18.715Z,101034.13
2024-02-13T13:06:46.496Z,101037.59
2024-02-13T13:09:23.683Z,101032.25
2024-02-13T13:11:56.301Z,101037.88
2024-02-13T13:14:25.130Z,101037.59
2024-02-13T13:16:53.598Z,101024.56
2024-02-13T13:19:24.590Z,101028.34
2024-02-13T13:21:54.507Z,101026.47
2024-02-13T13:24:24.022Z,101033.66
2024-02-13T13:26:52.042Z,101034.81
2024-02-13T13:29:21.231Z,101036.69
2024-02-13T13:31:50.654Z,101035.91
2024-02-13T13:34:22.039Z,101041.22
2024-02-13T13:36:51.171Z,101037.00
2024-02-13T13:39:18.793Z,101038.91
2024-02-13T13:41:46.559Z,101043.44
2024-02-13T13:44:16.855Z,101038.13
2024-02-13T13:46:47.094Z,101038.44
2024-02-13T13:49:19.403Z,101032.34
2024-02-13T13:51:48.364Z,101045.66
2024-02-13T13:54:16.725Z,101045.66
2024-02-13T13:56:44.362Z,101053.66
2024-02-13T13:59:12.091Z,101055.56
2024-02-13T14:01:40.060Z,101047.56
2024-02-13T14:04:12.721Z,101059.75
2024-02-13T14:06:41.379Z,101061.63
2024-02-13T14:09:10.029Z,101061.63
2024-02-13T14:11:38.581Z,101065.84
2024-02-13T14:14:06.685Z,101068.50
2024-02-13T14:16:34.355Z,101058.75
2024-02-13T14:19:02.884Z,101061.06
2024-02-13T14:21:30.453Z,101063.41
2024-02-13T14:23:59.529Z,101069.19
2024-02-13T14:26:28.031Z,101068.84
2024-02-13T14:28:55.598Z,101070.41
2024-02-13T14:31:23.033Z,101074.63
2024-02-13T14:33:51.172Z,101069.28
2024-02-13T14:36:20.452Z,101078.06
2024-02-13T14:38:47.868Z,101078.06
2024-02-13T14:41:16.937Z,101079.94
2024-02-13T14:43:44.424Z,101073.53
2024-02-13T14:46:12.175Z,101070.06
2024-02-13T14:48:39.885Z,101079.94
2024-02-13T14:51:07.626Z,101078.06
2024-02-13T14:53:35.603Z,101079.16
2024-02-13T14:56:03.043Z,101079.63
2024-02-13T14:58:38.954Z,101089.50
2024-02-13T15:01:10.894Z,101087.16
2024-02-13T15:03:39.917Z,101085.28
2024-02-13T15:06:07.924Z,101087.94
2024-02-13T15:08:36.134Z,101089.03
2024-02-13T15:11:06.085Z,101089.03
2024-02-13T15:13:36.824Z,101082.94
2024-02-13T15:16:06.901Z,101092.81
2024-02-13T15:18:44.695Z,101092.03
2024-02-13T15:21:13.226Z,101096.56
2024-02-13T15:23:41.782Z,101093.13
2024-02-13T15:26:09.783Z,101099.25
2024-02-13T15:28:37.800Z,101102.25
2024-02-13T15:31:05.757Z,101098.00
2024-02-13T15:33:41.774Z,101099.59
2024-02-13T15:36:32.557Z,101107.88
2024-02-13T15:39:19.115Z,101112.44
2024-02-13T15:42:05.532Z,101101.47
2024-02-13T15:44:51.814Z,101107.09
2024-02-13T15:47:19.416Z,101104.78
2024-02-13T15:49:51.161Z,101114.31
2024-02-13T15:52:19.414Z,101112.75
2024-02-13T15:54:49.119Z,101120.75
2024-02-13T15:57:17.193Z,101111.22
2024-02-13T15:59:45.327Z,101114.66
2024-02-13T16:02:16.222Z,101114.66
2024-02-13T16:04:44.356Z,101114.66
2024-02-13T16:07:12.143Z,101124.19
2024-02-13T16:09:39.995Z,101121.19
2024-02-13T16:12:07.598Z,101123.19
2024-02-13T16:14:35.120Z,101121.31
2024-02-13T16:17:03.798Z,101118.34
2024-02-13T16:19:31.982Z,101129.06
2024-02-13T16:21:59.549Z,101121.09
2024-02-13T16:24:26.980Z,101130.63
2024-02-13T16:26:54.788Z,101126.09
2024-02-13T16:29:24.914Z,101136.75
2024-02-13T16:31:54.767Z,101137.50
2024-02-13T16:34:22.870Z,101139.41
2024-02-13T16:36:50.497Z,101142.84
2024-02-13T16:39:19.262Z,101138.28
2024-02-13T16:41:47.345Z,101148.94
2024-02-13T16:44:19.348Z,101149.72
2024-02-13T16:46:49.649Z,101156.16
2024-02-13T16:49:17.624Z,101154.28
2024-02-13T16:51:45.327Z,101150.03
2024-02-13T16:54:12.935Z,101148.16
2024-02-13T16:56:40.673Z,101149.72
2024-02-13T16:59:08.605Z,101152.72
2024-02-13T17:01:37.813Z,101147.38
2024-02-13T17:04:10.032Z,101149.28
2024-02-13T17:06:37.949Z,101154.59
2024-02-13T17:09:06.599Z,101154.19
2024-02-13T17:11:34.935Z,101150.72
2024-02-13T17:14:02.386Z,101159.50
2024-02-13T17:16:30.519Z,101155.28
2024-02-13T17:18:58.640Z,101163.25
2024-02-13T17:21:26.776Z,101165.94
2024-02-13T17:23:54.348Z,101160.59
2024-02-13T17:26:24.302Z,101167.81
2024-02-13T17:28:51.890Z,101159.03
2024-02-13T17:31:19.546Z,101162.81
2024-02-13T17:33:47.881Z,101161.25
2024-02-13T17:36:16.722Z,101165.47
2024-02-13T17:38:47.167Z,101163.91
2024-02-13T17:41:16.828Z,101165.81
2024-02-13T17:43:47.289Z,101167.69
2024-02-13T17:46:16.079Z,101168.03
2024-02-13T17:48:43.732Z,101161.91
2024-02-13T17:51:11.366Z,101164.28
2024-02-13T17:53:39.122Z,101158.47
2024-02-13T17:56:07.148Z,101161.63
2024-02-13T17:58:34.480Z,101166.16
2024-02-13T18:01:02.083Z,101163.13
2024-02-13T18:03:30.054Z,101166.59
2024-02-13T18:06:03.278Z,101160.94
2024-02-13T18:08:35.046Z,101164.81
2024-02-13T18:11:03.070Z,101155.38
2024-02-13T18:13:30.874Z,101149.72
2024-02-13T18:15:58.614Z,101151.25
2024-02-13T18:18:28.087Z,101153.59
2024-02-13T18:20:56.084Z,101149.03
2024-02-13T18:23:23.591Z,101155.94
2024-02-13T18:25:51.331Z,101145.31
2024-02-13T18:28:18.706Z,101149.53
2024-02-13T18:31:23.789Z,101151.41
2024-02-13T18:34:47.327Z,101152.97
2024-02-13T18:38:13.529Z,101144.81
2024-02-13T18:41:36.467Z,101144.19
2024-02-13T18:45:04.043Z,101142.63
2024-02-13T18:48:30.039Z,101140.75
2024-02-13T18:51:53.388Z,101129.31
2024-02-13T18:55:21.603Z,101141.81
2024-02-13T18:58:45.135Z,101142.94
2024-02-13T19:02:16.235Z,101142.94
2024-02-13T19:05:41.105Z,101144.81
2024-02-13T19:09:04.923Z,101140.28
2024-02-13T19:12:49.844Z,101152.03
2024-02-13T19:16:15.921Z,101156.56
2024-02-13T19:19:43.010Z,101155.06
2024-02-13T19:23:06.510Z,101154.28
2024-02-13T19:26:30.315Z,101143.63
2024-02-13T19:29:53.960Z,101142.06
2024-02-13T19:33:34.157Z,101146.59
2024-02-13T19:37:01.630Z,101137.06
2024-02-13T19:40:25.642Z,101150.72
2024-02-13T19:43:48.481Z,101157.59
2024-02-13T19:47:11.894Z,101159.50
2024-02-13T19:50:57.834Z,101159.81
2024-02-13T19:54:45.325Z,101157.16
2024-02-13T19:58:29.120Z,101158.72
2024-02-13T20:02:12.839Z,101161.38
2024-02-13T20:05:59.216Z,101164.47
2024-02-13T20:09:30.004Z,101166.13
2024-02-13T20:12:53.209Z,101165.50
2024-02-13T20:16:17.489Z,101162.47
2024-02-13T20:19:41.203Z,101163.25
2024-02-13T20:23:08.768Z,101153.38
2024-02-13T20:26:37.198Z,101159.16
2024-02-13T20:29:51.622Z,101167.16
2024-02-13T20:32:20.028Z,101159.16
2024-02-13T20:34:48.105Z,101158.38
2024-02-13T20:37:17.236Z,101155.72
2024-02-13T20:39:45.514Z,101156.03
2024-02-13T20:42:13.075Z,101165.25
2024-02-13T20:44:41.806Z,101159.16
2024-02-13T20:47:10.890Z,101172.47
2024-02-13T20:49:38.744Z,101166.38
2024-02-13T20:52:06.579Z,101162.94
2024-02-13T20:54:34.225Z,101161.34
2024-02-13T20:57:02.313Z,101169.44
2024-02-13T20:59:31.573Z,101158.66
2024-02-13T21:02:06.809Z,101165.13
2024-02-13T21:04:35.520Z,101158.66
2024-02-13T21:07:03.166Z,101161.13
2024-02-13T21:09:30.772Z,101163.47
2024-02-13T21:11:58.708Z,101160.03
2024-02-13T21:14:26.640Z,101167.69
2024-02-13T21:16:54.180Z,101162.47
2024-02-13T21:19:22.962Z,101159.56
2024-02-13T21:22:08.787Z,101160.06
2024-02-13T21:24:36.520Z,101161.63
2024-02-13T21:27:04.287Z,101160.84
2024-02-13T21:29:32.300Z,101158.28
2024-02-13T21:32:00.028Z,101166.25
2024-02-13T21:34:28.759Z,101160.47
2024-02-13T21:36:56.400Z,101169.38
2024-02-13T21:39:26.279Z,101160.69
2024-02-13T21:41:54.516Z,101161.81
2024-02-13T21:44:22.566Z,101169.47
2024-02-13T21:46:54.691Z,101160.38
2024-02-13T21:49:23.387Z,101162.69
2024-02-13T21:51:51.091Z,101158.50
2024-02-13T21:54:18.936Z,101162.34
2024-02-13T21:56:46.618Z,101167.59
2024-02-13T21:59:14.798Z,101158.13
2024-02-13T22:01:42.814Z,101162.34
2024-02-13T22:04:10.698Z,101159.41
2024-02-13T22:06:38.472Z,101156.50
2024-02-13T22:09:06.707Z,101160.03
2024-02-13T22:11:34.728Z,101156.59
2024-02-13T22:14:02.244Z,101155.91
2024-02-13T22:16:32.881Z,101163.56
2024-02-13T22:19:02.016Z,101159.84
2024-02-13T22:21:30.219Z,101162.91
2024-02-13T22:24:00.217Z,101166.34
2024-02-13T22:26:29.588Z,101161.72
2024-02-13T22:28:58.006Z,101167.03
2024-02-13T22:31:26.197Z,101163.91
2024-02-13T22:33:56.185Z,101169.72
2024-02-13T22:36:24.749Z,101167.34
2024-02-13T22:38:55.754Z,101163.56
2024-02-13T22:41:25.305Z,101161.03
2024-02-13T22:43:53.324Z,101170.78
2024-02-13T22:46:25.186Z,101173.47
2024-02-13T22:48:55.087Z,101165.47
2024-02-13T22:51:23.081Z,101169.91
2024-02-13T22:53:50.895Z,101168.00
2024-02-13T22:56:18.813Z,101174.13
2024-02-13T22:58:46.940Z,101172.34
2024-02-13T23:01:15.656Z,101169.81
2024-02-13T23:03:43.774Z,101169.13
2024-02-13T23:06:12.201Z,101174.13
2024-02-13T23:08:41.835Z,101177.97
2024-02-13T23:11:11.321Z,101179.13
2024-02-13T23:13:44.352Z,101177.66
2024-02-13T23:16:15.980Z,101169.56
2024-02-13T23:18:44.283Z,101177.22
2024-02-13T23:21:12.906Z,101173.78
2024-02-13T23:23:40.937Z,101175.31
2024-02-13T23:26:09.437Z,101168.47
2024-02-13T23:28:48.370Z,101180.31
2024-02-13T23:31:23.758Z,101175.22
2024-02-13T23:33:51.786Z,101173.00
2024-02-13T23:36:20.003Z,101167.50
2024-02-13T23:38:47.762Z,101172.81
2024-02-13T23:41:15.597Z,101169.47
2024-02-13T23:43:43.484Z,101170.00
2024-02-13T23:46:11.292Z,101167.59
2024-02-13T23:48:39.154Z,101169.03
2024-02-13T23:51:07.323Z,101167.81
2024-02-13T23:53:35.054Z,101170.78
2024-02-13T23:56:02.787Z,101165.16
2024-02-13T23:58:32.445Z,101162.78
